createdAt,value
2019-04-11T00:02:28.991Z,5.04
2019-04-11T00:07:36.342Z,5.20
2019-04-11T00:12:43.411Z,5.31
2019-04-11T00:17:52.341Z,5.27
2019-04-11T00:22:59.751Z,5.19
2019-04-11T00:28:07.863Z,5.27
2019-04-11T00:33:16.184Z,5.22
2019-04-11T00:38:24.334Z,4.91
2019-04-11T00:43:37.115Z,5.36
2019-04-11T00:48:40.293Z,4.98
2019-04-11T00:53:48.533Z,4.74
2019-04-11T00:58:56.770Z,4.93
2019-04-11T01:04:05.091Z,5.11
2019-04-11T01:09:13.475Z,4.78
2019-04-11T01:14:22.040Z,4.37
2019-04-11T01:19:30.965Z,4.74
2019-04-11T01:24:38.143Z,4.21
2019-04-11T01:29:47.300Z,4.07
2019-04-11T01:34:54.988Z,4.18
2019-04-11T01:40:01.858Z,3.89
2019-04-11T01:45:10.111Z,4.04
2019-04-11T01:50:18.958Z,4.34
2019-04-11T01:55:26.474Z,3.93
2019-04-11T02:00:34.856Z,3.88
2019-04-11T02:05:47.432Z,3.76
2019-04-11T02:10:45.235Z,4.02
2019-04-11T02:15:54.210Z,3.65
2019-04-11T02:20:59.656Z,3.97
2019-04-11T02:26:09.929Z,3.91
2019-04-11T02:31:17.132Z,4.00
2019-04-11T02:36:24.796Z,3.72
2019-04-11T02:41:31.942Z,3.95
2019-04-11T02:46:48.411Z,4.14
2019-04-11T02:51:47.245Z,4.02
2019-04-11T02:56:54.824Z,4.11
2019-04-11T03:02:01.451Z,3.97
2019-04-11T03:07:09.956Z,3.98
2019-04-11T03:12:16.949Z,4.01
2019-04-11T03:17:31.601Z,3.99
2019-04-11T03:22:34.239Z,4.06
2019-04-11T03:27:40.917Z,4.16
2019-04-11T03:33:49.764Z,4.03
2019-04-11T03:38:19.540Z,4.00
2019-04-11T03:43:11.983Z,4.01
2019-04-11T03:48:21.816Z,3.72
2019-04-11T03:53:19.424Z,4.17
2019-04-11T03:58:26.042Z,4.10
2019-04-11T04:03:34.416Z,4.24
2019-04-11T04:08:42.343Z,4.61
2019-04-11T04:13:49.905Z,4.39
2019-04-11T04:18:58.503Z,4.12
2019-04-11T04:24:06.125Z,4.64
2019-04-11T04:29:12.589Z,4.34
2019-04-11T04:34:21.822Z,4.40
2019-04-11T04:39:29.913Z,4.42
2019-04-11T04:44:36.053Z,4.61
2019-04-11T04:49:45.844Z,4.76
2019-04-11T04:54:52.823Z,4.74
2019-04-11T05:00:00.134Z,5.08
2019-04-11T05:05:06.971Z,4.87
2019-04-11T05:10:15.493Z,5.02
2019-04-11T05:15:24.353Z,4.60
2019-04-11T05:20:32.256Z,4.87
2019-04-11T05:25:39.078Z,5.09
2019-04-11T05:30:47.074Z,4.86
2019-04-11T05:35:56.509Z,5.26
2019-04-11T05:41:09.686Z,5.32
2019-04-11T05:46:29.831Z,5.44
2019-04-11T05:51:23.121Z,5.81
2019-04-11T05:56:27.866Z,5.81
2019-04-11T06:01:36.313Z,5.54
2019-04-11T06:06:44.345Z,5.84
2019-04-11T06:11:54.483Z,6.19
2019-04-11T06:16:59.372Z,5.95
2019-04-11T06:22:08.690Z,6.43
2019-04-11T06:27:16.697Z,6.58
2019-04-11T06:32:23.555Z,7.07
2019-04-11T06:37:31.871Z,5.21
2019-04-11T06:42:39.288Z,4.98
2019-04-11T06:47:47.159Z,5.09
2019-04-11T06:52:53.945Z,5.40
2019-04-11T06:58:02.668Z,6.23
2019-04-11T07:03:19.638Z,5.83
2019-04-11T07:08:18.111Z,5.01
2019-04-11T07:13:25.174Z,4.99
2019-04-11T07:18:33.333Z,4.63
2019-04-11T07:23:44.007Z,4.85
2019-04-11T07:28:50.128Z,4.78
2019-04-11T07:33:59.064Z,5.18
2019-04-11T07:39:05.549Z,5.15
2019-04-11T07:44:13.117Z,4.89
2019-04-11T07:49:19.962Z,5.26
2019-04-11T07:54:28.198Z,5.22
2019-04-11T07:59:37.532Z,6.61
2019-04-11T08:04:45.125Z,7.23
2019-04-11T08:09:52.730Z,6.26
2019-04-11T08:14:59.377Z,6.61
2019-04-11T08:20:08.031Z,6.14
2019-04-11T08:25:15.415Z,5.98
2019-04-11T08:30:24.623Z,6.05
2019-04-11T08:35:30.877Z,5.54
2019-04-11T08:40:39.022Z,5.27
2019-04-11T08:45:48.477Z,5.90
2019-04-11T08:50:55.061Z,6.17
2019-04-11T08:56:03.906Z,5.90
2019-04-11T09:01:11.607Z,5.88
2019-04-11T09:06:18.884Z,5.42
2019-04-11T09:16:34.471Z,4.73
2019-04-11T09:22:33.218Z,5.29
2019-04-11T09:36:54.086Z,5.28
2019-04-11T09:41:57.592Z,5.02
2019-04-11T09:46:54.873Z,7.10
2019-04-11T10:17:29.682Z,4.29
2019-04-11T10:22:36.807Z,4.30
2019-04-11T10:27:45.089Z,4.72
2019-04-11T10:32:55.206Z,4.44
2019-04-11T10:38:02.314Z,4.43
2019-04-11T10:43:09.850Z,3.86
2019-04-11T10:48:18.157Z,4.75
2019-04-11T10:53:27.008Z,4.59
2019-04-11T10:58:35.153Z,4.59
2019-04-11T11:03:43.081Z,4.00
2019-04-11T11:08:50.136Z,3.94
2019-04-11T11:13:58.569Z,3.82
2019-04-11T11:19:31.591Z,4.27
2019-04-11T11:24:17.823Z,4.80
2019-04-11T11:29:17.205Z,5.37
2019-04-11T11:34:25.747Z,3.76
2019-04-11T11:39:24.737Z,3.58
2019-04-11T11:44:32.887Z,3.92
2019-04-11T11:49:48.716Z,4.22
2019-04-11T11:54:48.147Z,4.56
2019-04-11T11:59:56.569Z,4.45
2019-04-11T12:05:07.788Z,3.75
2019-04-11T12:10:11.333Z,3.70
2019-04-11T12:15:22.336Z,3.72
2019-04-11T12:20:27.565Z,4.05
2019-04-11T12:25:36.953Z,4.09
2019-04-11T12:30:44.998Z,3.29
2019-04-11T12:35:54.759Z,3.26
2019-04-11T12:41:01.529Z,3.98
2019-04-11T12:46:30.126Z,3.61
2019-04-11T12:51:40.144Z,3.56
2019-04-11T12:56:45.887Z,3.45
2019-04-11T13:01:24.242Z,3.02
2019-04-11T13:06:35.554Z,3.20
2019-04-11T13:11:39.557Z,3.31
2019-04-11T13:16:48.248Z,3.68
2019-04-11T13:21:56.654Z,5.26
2019-04-11T13:27:05.641Z,3.85
2019-04-11T13:32:15.261Z,3.79
2019-04-11T13:37:23.639Z,3.52
2019-04-11T13:42:32.102Z,3.41
2019-04-11T13:47:40.554Z,4.12
2019-04-11T13:52:49.357Z,5.24
2019-04-11T13:57:57.831Z,3.71
2019-04-11T14:03:06.198Z,2.86
2019-04-11T14:08:14.555Z,4.08
2019-04-11T14:13:22.926Z,3.86
2019-04-11T14:18:31.269Z,3.80
2019-04-11T14:23:41.943Z,3.80
2019-04-11T14:28:47.908Z,3.62
2019-04-11T14:34:21.542Z,3.81
2019-04-11T14:39:00.951Z,3.47
2019-04-11T14:44:08.892Z,4.49
2019-04-11T14:49:17.262Z,3.48
2019-04-11T14:54:34.371Z,4.32
2019-04-11T14:59:32.832Z,4.86
2019-04-11T15:04:43.748Z,3.61
2019-04-11T15:09:49.786Z,4.09
2019-04-11T15:15:00.135Z,6.13
2019-04-11T15:21:29.759Z,4.30
2019-04-11T15:32:08.775Z,4.69
2019-04-11T15:32:53.963Z,4.02
2019-04-11T15:37:57.937Z,4.81
2019-04-11T15:42:55.582Z,4.68
2019-04-11T15:48:04.118Z,6.34
2019-04-11T15:53:12.521Z,4.98
2019-04-11T15:58:19.185Z,3.57
2019-04-11T16:03:27.504Z,4.27
2019-04-11T16:08:38.792Z,4.62
2019-04-11T16:13:43.651Z,4.62
2019-04-11T16:18:51.779Z,3.91
2019-04-11T16:24:00.026Z,4.17
2019-04-11T16:29:08.665Z,4.24
2019-04-11T16:34:16.197Z,3.68
2019-04-11T16:39:23.499Z,5.53
2019-04-11T16:44:31.912Z,5.82
2019-04-11T16:49:42.280Z,5.63
2019-04-11T16:54:49.058Z,5.28
2019-04-11T16:59:57.754Z,6.91
2019-04-11T17:05:06.468Z,8.30
2019-04-11T17:10:15.046Z,6.77
2019-04-11T17:15:23.758Z,7.44
2019-04-11T17:20:35.660Z,4.90
2019-04-11T17:25:40.420Z,6.87
2019-04-11T17:30:48.933Z,7.37
2019-04-11T17:36:02.007Z,7.86
2019-04-11T17:41:08.919Z,5.30
2019-04-11T17:46:14.596Z,7.58
2019-04-11T17:51:23.200Z,7.07
2019-04-11T17:56:31.687Z,7.34
2019-04-11T18:16:51.656Z,5.58
2019-04-11T18:22:07.769Z,9.04
2019-04-11T18:27:07.714Z,6.43
2019-04-11T18:32:16.148Z,8.27
2019-04-11T18:37:25.046Z,6.73
2019-04-11T18:42:31.909Z,7.67
2019-04-11T18:47:40.252Z,5.72
2019-04-11T18:52:48.616Z,5.46
2019-04-11T18:57:57.255Z,5.00
2019-04-11T19:03:05.446Z,4.86
2019-04-11T19:08:14.508Z,7.97
2019-04-11T19:13:23.026Z,8.33
2019-04-11T19:18:35.499Z,6.34
2019-04-11T19:23:34.229Z,8.47
2019-04-11T19:28:43.037Z,5.17
2019-04-11T19:33:51.711Z,6.51
2019-04-11T19:39:01.252Z,5.99
2019-04-11T19:44:07.952Z,6.96
2019-04-11T19:49:16.405Z,5.87
2019-04-11T19:54:24.524Z,6.04
2019-04-11T19:59:32.742Z,5.74
2019-04-11T20:04:41.032Z,5.50
2019-04-11T20:09:49.333Z,5.84
2019-04-11T20:14:57.449Z,5.08
2019-04-11T20:20:07.176Z,5.21
2019-04-11T20:25:16.049Z,5.60
2019-04-11T20:30:22.945Z,6.25
2019-04-11T20:35:29.511Z,5.89
2019-04-11T20:40:37.885Z,6.13
2019-04-11T20:45:46.709Z,5.88
2019-04-11T20:50:56.233Z,6.41
2019-04-11T20:56:04.694Z,6.09
2019-04-11T21:01:12.898Z,6.77
2019-04-11T21:06:21.500Z,6.01
2019-04-11T21:11:29.833Z,6.11
2019-04-11T21:16:38.167Z,5.88
2019-04-11T21:21:46.499Z,5.82
2019-04-11T21:26:56.909Z,5.20
2019-04-11T21:32:02.646Z,5.62
2019-04-11T21:37:10.870Z,5.15
2019-04-11T21:42:19.180Z,6.05
2019-04-11T21:47:27.467Z,5.33
2019-04-11T21:52:35.596Z,5.40
2019-04-11T21:57:48.571Z,5.40
2019-04-11T22:02:51.962Z,5.08
2019-04-11T22:08:00.848Z,5.68
2019-04-11T22:13:09.757Z,5.57
2019-04-11T22:18:16.778Z,5.18
2019-04-11T22:23:22.610Z,5.01
2019-04-11T22:28:30.792Z,5.20
2019-04-11T22:33:39.042Z,5.35
2019-04-11T22:38:47.348Z,5.35
2019-04-11T22:43:55.493Z,5.45
2019-04-11T22:49:03.746Z,5.30
2019-04-11T22:54:13.160Z,5.40
2019-04-11T22:59:19.573Z,5.63
2019-04-11T23:04:27.709Z,5.73
2019-04-11T23:09:35.795Z,5.39
2019-04-11T23:14:45.802Z,6.02
2019-04-11T23:19:51.533Z,6.02
2019-04-11T23:24:59.621Z,6.24
2019-04-11T23:30:07.892Z,6.82
2019-04-11T23:35:16.728Z,6.37
2019-04-11T23:40:24.822Z,6.02
2019-04-11T23:45:32.911Z,6.13
2019-04-11T23:50:41.006Z,5.83
2019-04-11T23:55:49.118Z,6.02
